Time;durP1;ratioP1;P1;durP2;ratioP2;P2;SDS_P1;SDS_P2;PMS_P1;PMS_P2;Temp;Humidity;BMP_temperature;BMP_pressure;BME280_temperature;BME280_humidity;BME280_pressure;Samples;Min_cycle;Max_cycle;Signal;HPM_P1;HPM_P2
2022/02/13 00:00:59;;;;;;;;;63.75;51.25;10.60;37.30;;;;;;4937866;29;8976;-70
2022/02/13 00:03:25;;;;;;;;;70.25;56.50;10.70;36.90;;;;;;4938452;29;8782;-71
2022/02/13 00:05:51;;;;;;;;;68.75;55.25;10.60;37.20;;;;;;4937271;29;8836;-71
2022/02/13 00:08:18;;;;;;;;;66.75;54.25;10.70;37.10;;;;;;4938072;29;8845;-69
2022/02/13 00:10:44;;;;;;;;;60.25;49.50;10.70;36.90;;;;;;4937924;29;8798;-71
2022/02/13 00:13:09;;;;;;;;;56.25;43.75;10.70;36.90;;;;;;4937833;29;8809;-71
2022/02/13 00:15:35;;;;;;;;;62.75;50.75;10.80;36.90;;;;;;4937718;29;8779;-71
2022/02/13 00:18:01;;;;;;;;;63.25;51.50;10.80;36.50;;;;;;4937638;29;8810;-70
2022/02/13 00:20:28;;;;;;;;;63.75;53.25;10.80;36.70;;;;;;4937566;29;8817;-69
2022/02/13 00:22:54;;;;;;;;;60.25;51.50;10.80;36.90;;;;;;4937425;29;8797;-70
2022/02/13 00:25:20;;;;;;;;;71.25;56.50;10.70;36.90;;;;;;4937801;29;8779;-70
2022/02/13 00:27:46;;;;;;;;;74.00;59.50;10.70;36.90;;;;;;4937522;29;9438;-72
2022/02/13 00:30:14;;;;;;;;;79.75;61.25;10.80;37.00;;;;;;4937448;29;8802;-70
2022/02/13 00:32:43;;;;;;;;;82.00;65.75;10.80;36.90;;;;;;4937242;29;8799;-70
2022/02/13 00:35:10;;;;;;;;;81.00;65.25;10.70;36.80;;;;;;4937515;29;8901;-71
2022/02/13 00:37:35;;;;;;;;;79.75;63.75;10.70;36.80;;;;;;4937412;29;8809;-71
2022/02/13 00:40:02;;;;;;;;;77.75;60.75;10.60;37.00;;;;;;4937238;29;8802;-71
2022/02/13 00:42:27;;;;;;;;;73.75;59.75;10.60;37.00;;;;;;4937259;29;9501;-73
2022/02/13 00:44:53;;;;;;;;;83.75;66.00;10.60;37.00;;;;;;4937287;29;8873;-71
2022/02/13 00:47:19;;;;;;;;;82.75;65.25;10.70;37.90;;;;;;4937269;29;8795;-71
2022/02/13 00:49:45;;;;;;;;;79.50;63.25;10.60;37.00;;;;;;4937230;29;8783;-73
2022/02/13 00:52:10;;;;;;;;;81.25;65.25;10.60;37.00;;;;;;4937279;29;8822;-72
2022/02/13 00:54:36;;;;;;;;;78.00;64.00;10.60;37.00;;;;;;4937112;29;8826;-72
2022/02/13 00:57:03;;;;;;;;;73.00;57.25;10.60;37.00;;;;;;4937508;29;8798;-71
2022/02/13 00:59:28;;;;;;;;;78.00;62.25;10.60;37.20;;;;;;4937294;29;9647;-69
2022/02/13 01:01:54;;;;;;;;;73.50;59.25;10.50;37.00;;;;;;4937343;29;8873;-71
2022/02/13 01:04:21;;;;;;;;;76.25;59.25;10.60;37.20;;;;;;4936970;29;8791;-72
2022/02/13 01:06:46;;;;;;;;;65.00;52.75;10.50;37.10;;;;;;4937000;29;8846;-71
2022/02/13 01:09:12;;;;;;;;;48.00;43.25;10.50;36.90;;;;;;4937048;29;8791;-71
2022/02/13 01:11:39;;;;;;;;;45.50;41.50;10.30;36.70;;;;;;4936933;29;8842;-70
2022/02/13 01:14:05;;;;;;;;;56.75;46.75;10.20;36.70;;;;;;4936986;29;8791;-71
2022/02/13 01:16:31;;;;;;;;;49.50;42.50;10.10;37.00;;;;;;4937438;29;8771;-72
2022/02/13 01:18:57;;;;;;;;;50.50;42.75;10.00;37.20;;;;;;4940796;29;8823;-70
2022/02/13 01:21:23;;;;;;;;;61.25;50.50;10.00;37.50;;;;;;4941085;29;8810;-70
2022/02/13 01:23:49;;;;;;;;;59.50;49.50;10.00;37.40;;;;;;4940743;29;8794;-70
2022/02/13 01:26:15;;;;;;;;;66.25;54.00;9.90;37.40;;;;;;4940793;29;8802;-70
2022/02/13 01:28:41;;;;;;;;;56.25;45.50;9.90;37.90;;;;;;4940750;29;8791;-73
2022/02/13 01:31:08;;;;;;;;;67.50;52.00;9.80;37.90;;;;;;4940816;29;8775;-71
2022/02/13 01:33:35;;;;;;;;;62.25;50.25;9.50;38.10;;;;;;4940729;29;8822;-71
2022/02/13 01:36:02;;;;;;;;;58.75;47.25;9.60;38.20;;;;;;4940895;29;8783;-72
2022/02/13 01:38:28;;;;;;;;;52.25;44.00;9.70;38.40;;;;;;4940605;29;8880;-70
2022/02/13 01:40:55;;;;;;;;;52.75;42.50;9.70;38.00;;;;;;4940543;29;8802;-71
2022/02/13 01:43:21;;;;;;;;;62.00;50.75;9.70;37.80;;;;;;4940460;29;8778;-72
2022/02/13 01:45:47;;;;;;;;;59.50;51.50;9.70;37.90;;;;;;4940478;29;9422;-69
2022/02/13 01:48:13;;;;;;;;;62.00;50.75;9.60;38.10;;;;;;4940392;29;8786;-70
2022/02/13 01:50:40;;;;;;;;;63.75;53.25;9.60;38.10;;;;;;4940421;29;8859;-71
2022/02/13 01:53:07;;;;;;;;;69.75;56.50;9.70;38.20;;;;;;4940400;29;8805;-71
2022/02/13 01:55:33;;;;;;;;;67.50;54.00;9.40;38.80;;;;;;4940347;29;8817;-70
2022/02/13 01:57:59;;;;;;;;;70.75;55.25;9.50;38.70;;;;;;4940181;29;8817;-70
2022/02/13 02:00:26;;;;;;;;;74.25;57.75;9.50;38.90;;;;;;4940137;29;8806;-71
2022/02/13 02:02:52;;;;;;;;;57.00;44.50;9.30;39.30;;;;;;4940131;29;8782;-70
2022/02/13 02:05:18;;;;;;;;;68.75;56.75;9.20;39.60;;;;;;4940167;29;8774;-70
2022/02/13 02:07:44;;;;;;;;;64.25;52.25;9.10;39.90;;;;;;4940123;29;8798;-69
2022/02/13 02:10:10;;;;;;;;;73.25;55.75;9.10;40.20;;;;;;4940177;29;8790;-70
2022/02/13 02:12:37;;;;;;;;;76.25;59.25;9.10;40.20;;;;;;4940336;29;8971;-71
2022/02/13 02:15:04;;;;;;;;;76.50;60.50;9.10;40.10;;;;;;4939946;29;8797;-70
2022/02/13 02:17:30;;;;;;;;;73.25;59.25;9.10;39.70;;;;;;4940218;29;9674;-71
2022/02/13 02:19:56;;;;;;;;;76.00;61.25;9.10;39.50;;;;;;4940007;29;8811;-69
2022/02/13 02:22:21;;;;;;;;;70.50;55.50;9.20;39.10;;;;;;4939762;29;8781;-71
2022/02/13 02:24:47;;;;;;;;;61.50;49.25;9.10;39.00;;;;;;4939723;29;8814;-72
2022/02/13 02:27:13;;;;;;;;;49.50;45.25;9.10;39.00;;;;;;4939953;29;8799;-70
2022/02/13 02:29:39;;;;;;;;;54.00;43.75;9.20;38.90;;;;;;4938767;29;8799;-70
2022/02/13 02:32:10;;;;;;;;;62.25;48.75;9.10;39.10;;;;;;4939584;29;8807;-70
2022/02/13 02:34:39;;;;;;;;;40.75;35.00;9.20;38.70;;;;;;4939665;29;8783;-69
2022/02/13 02:37:07;;;;;;;;;48.25;42.00;9.10;38.90;;;;;;4939833;29;8883;-70
2022/02/13 02:39:33;;;;;;;;;43.50;40.25;9.10;39.10;;;;;;4939453;29;8857;-72
2022/02/13 02:42:00;;;;;;;;;52.75;45.00;9.10;39.10;;;;;;4939718;29;8858;-73
2022/02/13 02:44:26;;;;;;;;;52.75;43.75;9.00;39.10;;;;;;4939390;29;8787;-69
2022/02/13 02:46:51;;;;;;;;;59.25;49.25;9.00;39.60;;;;;;4939646;29;8801;-70
2022/02/13 02:49:17;;;;;;;;;51.75;45.75;9.10;39.20;;;;;;4939364;29;8803;-70
2022/02/13 02:51:43;;;;;;;;;48.50;43.50;9.10;39.00;;;;;;4939312;29;8853;-69
2022/02/13 02:54:09;;;;;;;;;47.00;43.50;9.30;39.20;;;;;;4939504;29;8813;-72
2022/02/13 02:56:35;;;;;;;;;57.00;43.50;9.30;39.00;;;;;;4939162;29;9441;-70
2022/02/13 02:59:00;;;;;;;;;56.50;45.00;9.30;39.10;;;;;;4939076;29;8799;-70
2022/02/13 03:01:26;;;;;;;;;51.00;41.25;9.20;38.70;;;;;;4939289;29;8798;-70
2022/02/13 03:03:52;;;;;;;;;54.25;47.50;9.20;38.70;;;;;;4939374;29;8813;-73
2022/02/13 03:06:18;;;;;;;;;51.25;43.25;9.10;39.00;;;;;;4939020;29;9465;-70
2022/02/13 03:08:44;;;;;;;;;44.00;38.25;9.00;38.60;;;;;;4939047;29;8775;-71
2022/02/13 03:11:10;;;;;;;;;40.00;39.50;8.90;39.10;;;;;;4939067;29;8811;-69
2022/02/13 03:13:36;;;;;;;;;54.25;43.50;8.90;39.10;;;;;;4938817;29;8914;-71
2022/02/13 03:16:02;;;;;;;;;47.25;43.25;8.80;39.00;;;;;;4938845;29;8779;-72
2022/02/13 03:18:30;;;;;;;;;43.25;40.75;8.70;39.10;;;;;;4938939;29;8779;-72
2022/02/13 03:21:00;;;;;;;;;37.75;32.50;8.80;39.10;;;;;;4939000;29;9448;-72
2022/02/13 03:23:26;;;;;;;;;38.25;36.25;8.70;39.10;;;;;;4938791;29;8888;-71
2022/02/13 03:25:52;;;;;;;;;47.50;43.00;8.80;39.10;;;;;;4938675;29;8883;-70
2022/02/13 03:28:18;;;;;;;;;44.25;40.75;8.80;38.70;;;;;;4938877;29;9592;-69
2022/02/13 03:30:45;;;;;;;;;47.75;41.50;8.90;39.00;;;;;;4938541;29;8901;-71
2022/02/13 03:33:11;;;;;;;;;46.75;42.25;8.80;39.30;;;;;;4938314;29;8938;-71
2022/02/13 03:35:38;;;;;;;;;45.25;43.25;8.70;39.30;;;;;;4938558;29;8952;-71
2022/02/13 03:38:05;;;;;;;;;45.50;42.25;8.70;39.80;;;;;;4938498;29;8885;-71
2022/02/13 03:40:31;;;;;;;;;46.50;42.00;8.80;39.60;;;;;;4938376;29;8984;-69
2022/02/13 03:42:57;;;;;;;;;52.25;46.50;8.80;39.40;;;;;;4938719;29;8775;-70
2022/02/13 03:45:23;;;;;;;;;37.00;35.50;8.60;39.80;;;;;;4938489;29;8809;-72
2022/02/13 03:47:49;;;;;;;;;47.75;43.00;8.60;39.70;;;;;;4938241;29;9083;-71
2022/02/13 03:50:15;;;;;;;;;46.25;40.00;8.50;40.30;;;;;;4938253;29;8795;-71
2022/02/13 03:52:41;;;;;;;;;53.00;43.00;8.50;40.30;;;;;;4938394;29;8787;-71
2022/02/13 03:55:08;;;;;;;;;48.50;42.00;8.50;40.20;;;;;;4938235;29;9343;-72
2022/02/13 03:57:34;;;;;;;;;52.75;45.00;8.40;40.00;;;;;;4938115;29;8778;-70
2022/02/13 04:00:00;;;;;;;;;58.25;46.25;8.40;40.20;;;;;;4937909;29;8826;-71
2022/02/13 04:02:26;;;;;;;;;48.50;42.50;8.50;40.20;;;;;;4938055;29;8771;-74
2022/02/13 04:04:52;;;;;;;;;51.50;42.75;8.50;40.30;;;;;;4937938;29;8783;-71
2022/02/13 04:07:18;;;;;;;;;51.25;43.00;8.20;40.90;;;;;;4938178;29;8779;-71
2022/02/13 04:09:44;;;;;;;;;41.25;38.50;8.30;40.80;;;;;;4938149;29;8787;-70
2022/02/13 04:12:10;;;;;;;;;51.25;42.75;8.30;40.40;;;;;;4938015;29;8830;-70
2022/02/13 04:14:36;;;;;;;;;53.75;45.75;8.40;40.50;;;;;;4937799;29;8905;-70
2022/02/13 04:17:02;;;;;;;;;45.25;42.25;8.40;41.00;;;;;;4937774;29;8793;-71
2022/02/13 04:19:28;;;;;;;;;57.25;48.50;8.40;41.00;;;;;;4937643;29;8822;-72
2022/02/13 04:21:54;;;;;;;;;55.75;44.25;8.40;40.40;;;;;;4937712;29;8849;-71
2022/02/13 04:24:20;;;;;;;;;56.75;48.25;8.60;40.70;;;;;;4937871;29;8787;-72
2022/02/13 04:26:46;;;;;;;;;54.50;46.50;8.50;40.80;;;;;;4937794;29;8770;-70
2022/02/13 04:29:12;;;;;;;;;62.75;49.00;8.50;40.40;;;;;;4937568;29;8807;-71
2022/02/13 04:31:39;;;;;;;;;53.00;41.50;8.60;40.80;;;;;;4937239;29;8791;-71
2022/02/13 04:34:08;;;;;;;;;54.75;46.75;8.90;40.40;;;;;;4937565;29;8790;-70
2022/02/13 04:36:35;;;;;;;;;50.75;45.25;9.00;40.10;;;;;;4937415;29;8801;-69
2022/02/13 04:39:01;;;;;;;;;58.25;50.75;9.00;39.90;;;;;;4937407;29;8837;-71
2022/02/13 04:41:27;;;;;;;;;63.00;49.50;9.10;39.70;;;;;;4937441;29;8823;-71
2022/02/13 04:43:52;;;;;;;;;57.25;48.00;9.20;39.20;;;;;;4937540;29;8775;-72
2022/02/13 04:46:18;;;;;;;;;59.00;48.00;9.20;39.30;;;;;;4936257;29;8814;-70
2022/02/13 04:48:44;;;;;;;;;64.00;52.00;9.00;39.50;;;;;;4937508;29;8787;-71
2022/02/13 04:51:10;;;;;;;;;60.50;49.75;9.00;39.70;;;;;;4936959;29;8804;-70
2022/02/13 04:53:35;;;;;;;;;63.00;49.00;9.00;40.90;;;;;;4937290;29;8874;-70
2022/02/13 04:56:04;;;;;;;;;60.25;48.50;8.90;40.30;;;;;;4937213;29;8866;-71
2022/02/13 04:58:33;;;;;;;;;51.75;44.00;8.80;40.40;;;;;;4937031;29;8791;-71
2022/02/13 05:00:59;;;;;;;;;65.25;54.00;8.80;40.40;;;;;;4937151;29;8783;-71
2022/02/13 05:03:25;;;;;;;;;61.00;51.25;8.90;40.50;;;;;;4937081;29;8786;-70
2022/02/13 05:05:51;;;;;;;;;64.25;51.25;8.70;40.80;;;;;;4937311;29;8779;-71
2022/02/13 05:08:18;;;;;;;;;43.25;40.00;8.50;41.20;;;;;;4937397;29;8882;-70
2022/02/13 05:10:44;;;;;;;;;69.25;55.25;8.30;41.80;;;;;;4936917;29;8814;-71
2022/02/13 05:13:09;;;;;;;;;58.50;48.75;8.40;41.90;;;;;;4936992;29;8909;-69
2022/02/13 05:15:35;;;;;;;;;54.50;48.75;8.40;42.60;;;;;;4936997;29;8796;-70
2022/02/13 05:18:01;;;;;;;;;58.00;49.25;8.40;41.10;;;;;;4937158;29;8794;-70
2022/02/13 05:20:27;;;;;;;;;55.25;47.25;8.50;40.90;;;;;;4936818;29;8845;-70
2022/02/13 05:22:53;;;;;;;;;67.50;54.50;8.50;40.90;;;;;;4936933;29;8783;-70
2022/02/13 05:25:18;;;;;;;;;63.50;51.75;8.40;40.90;;;;;;4936859;29;8838;-70
2022/02/13 05:27:44;;;;;;;;;60.75;49.75;8.50;40.60;;;;;;4936858;29;8810;-70
2022/02/13 05:30:10;;;;;;;;;64.00;52.25;8.40;40.70;;;;;;4936097;29;8799;-70
2022/02/13 05:32:36;;;;;;;;;64.00;51.50;8.40;40.70;;;;;;4936734;29;8802;-69
2022/02/13 05:35:02;;;;;;;;;62.50;51.25;8.50;40.90;;;;;;4936736;29;8783;-71
2022/02/13 05:37:30;;;;;;;;;71.00;53.50;8.40;40.90;;;;;;4936806;29;8798;-71
2022/02/13 05:39:56;;;;;;;;;69.00;55.50;8.40;41.10;;;;;;4936590;29;8853;-70
2022/02/13 05:42:23;;;;;;;;;64.25;53.00;8.50;41.10;;;;;;4937123;29;9325;-71
2022/02/13 05:44:50;;;;;;;;;70.50;58.00;8.30;41.60;;;;;;4936988;29;8805;-70
2022/02/13 05:47:16;;;;;;;;;57.50;49.75;8.20;42.20;;;;;;4936763;29;8794;-71
2022/02/13 05:49:42;;;;;;;;;61.75;53.00;8.20;42.20;;;;;;4936983;29;8885;-69
2022/02/13 05:52:09;;;;;;;;;66.00;53.25;8.10;42.30;;;;;;4936659;29;8771;-70
2022/02/13 05:54:35;;;;;;;;;72.25;55.50;8.10;42.40;;;;;;4936668;29;8805;-70
2022/02/13 05:57:01;;;;;;;;;57.50;47.50;8.10;42.20;;;;;;4936621;29;8771;-70
2022/02/13 05:59:27;;;;;;;;;56.50;47.75;8.00;42.70;;;;;;4936559;29;8814;-71
2022/02/13 06:01:53;;;;;;;;;55.50;46.50;7.90;42.90;;;;;;4936495;29;8794;-70
2022/02/13 06:04:20;;;;;;;;;67.50;56.00;7.90;43.00;;;;;;4937936;29;8897;-71
2022/02/13 06:06:50;;;;;;;;;64.00;52.75;8.00;43.20;;;;;;4940056;29;8943;-70
2022/02/13 06:09:17;;;;;;;;;68.25;56.50;8.10;42.80;;;;;;4940331;29;8801;-71
2022/02/13 06:11:43;;;;;;;;;68.00;53.00;8.10;42.60;;;;;;4940083;29;9001;-71
2022/02/13 06:14:09;;;;;;;;;66.75;54.75;8.20;42.50;;;;;;4940192;29;8885;-71
2022/02/13 06:16:35;;;;;;;;;68.25;56.00;8.10;42.60;;;;;;4939923;29;8783;-71
2022/02/13 06:19:00;;;;;;;;;65.00;54.00;8.20;42.70;;;;;;4939805;29;8837;-71
2022/02/13 06:21:26;;;;;;;;;65.25;52.00;8.30;42.60;;;;;;4939786;29;8798;-70
2022/02/13 06:23:52;;;;;;;;;72.50;58.75;8.50;42.50;;;;;;4939760;29;8787;-70
2022/02/13 06:26:18;;;;;;;;;68.50;57.00;8.60;42.30;;;;;;4939691;29;8806;-71
2022/02/13 06:28:44;;;;;;;;;78.00;61.25;8.50;42.20;;;;;;4939627;29;8825;-71
2022/02/13 06:31:12;;;;;;;;;72.25;58.75;8.40;42.70;;;;;;4939626;29;8771;-69
2022/02/13 06:33:38;;;;;;;;;82.50;64.00;8.20;43.40;;;;;;4939504;29;8830;-70
2022/02/13 06:36:04;;;;;;;;;80.00;64.00;8.40;43.10;;;;;;4939573;29;8917;-71
2022/02/13 06:38:29;;;;;;;;;81.50;65.00;8.50;43.00;;;;;;4939468;29;8901;-71
2022/02/13 06:40:55;;;;;;;;;81.75;63.00;8.50;43.00;;;;;;4939376;29;8823;-71
2022/02/13 06:43:21;;;;;;;;;73.25;59.00;8.60;42.70;;;;;;4939381;29;8865;-71
2022/02/13 06:45:47;;;;;;;;;85.75;67.50;8.60;43.10;;;;;;4939638;29;8802;-72
2022/02/13 06:48:13;;;;;;;;;82.50;64.50;8.70;43.10;;;;;;4939299;29;8791;-70
2022/02/13 06:50:39;;;;;;;;;89.50;70.75;8.60;43.00;;;;;;4939529;29;8833;-70
2022/02/13 06:53:05;;;;;;;;;94.25;75.00;8.60;43.10;;;;;;4939336;29;9685;-71
2022/02/13 06:55:31;;;;;;;;;101.50;88.00;8.60;43.60;;;;;;4939235;29;8894;-69
2022/02/13 06:57:57;;;;;;;;;102.75;91.75;8.60;43.90;;;;;;4939112;29;8901;-69
2022/02/13 07:00:23;;;;;;;;;101.25;86.50;8.70;44.20;;;;;;4938987;29;8856;-71
2022/02/13 07:02:49;;;;;;;;;103.75;88.75;8.80;44.10;;;;;;4938968;29;8795;-71
2022/02/13 07:05:15;;;;;;;;;108.75;97.25;8.90;44.30;;;;;;4938963;29;8775;-70
2022/02/13 07:07:42;;;;;;;;;103.00;99.25;9.10;43.90;;;;;;4939076;29;8807;-69
2022/02/13 07:10:11;;;;;;;;;106.50;91.00;9.10;43.40;;;;;;4938899;29;8790;-69
2022/02/13 07:12:39;;;;;;;;;99.25;87.25;9.30;43.70;;;;;;4938770;29;8853;-69
2022/02/13 07:15:06;;;;;;;;;95.50;79.00;9.10;43.90;;;;;;4938437;29;8795;-68
2022/02/13 07:17:33;;;;;;;;;97.00;80.75;8.90;44.30;;;;;;4939067;29;8794;-69
2022/02/13 07:19:59;;;;;;;;;99.50;88.50;9.10;44.00;;;;;;4938529;29;8884;-69
2022/02/13 07:22:25;;;;;;;;;88.50;69.25;9.20;43.80;;;;;;4938591;29;8775;-69
2022/02/13 07:24:51;;;;;;;;;100.75;79.50;9.30;43.40;;;;;;4938869;29;8798;-69
2022/02/13 07:27:17;;;;;;;;;96.50;84.75;9.50;43.40;;;;;;4938674;29;8801;-69
2022/02/13 07:29:43;;;;;;;;;101.75;86.50;9.50;43.00;;;;;;4938824;29;8794;-68
2022/02/13 07:32:09;;;;;;;;;101.75;88.50;9.60;43.00;;;;;;4938504;29;8831;-70
2022/02/13 07:34:35;;;;;;;;;103.00;96.00;9.70;42.70;;;;;;4938476;29;9427;-69
2022/02/13 07:37:02;;;;;;;;;101.50;93.25;9.60;42.90;;;;;;4938448;29;8775;-68
2022/02/13 07:39:32;;;;;;;;;100.00;84.00;9.70;42.50;;;;;;4938302;29;8806;-68
2022/02/13 07:41:59;;;;;;;;;102.75;95.25;9.50;42.60;;;;;;4938444;29;8909;-69
2022/02/13 07:44:26;;;;;;;;;94.25;79.25;9.40;43.00;;;;;;4938533;29;8783;-69
2022/02/13 07:46:52;;;;;;;;;99.25;83.00;9.30;44.30;;;;;;4938466;29;8810;-69
2022/02/13 07:49:18;;;;;;;;;94.50;80.00;9.50;43.30;;;;;;4937846;29;8775;-69
2022/02/13 07:51:44;;;;;;;;;93.75;77.25;9.50;42.90;;;;;;4938093;29;8772;-68
2022/02/13 07:54:11;;;;;;;;;103.50;87.25;9.60;43.00;;;;;;4938302;29;8902;-70
2022/02/13 07:56:36;;;;;;;;;100.25;90.50;9.70;43.00;;;;;;4938041;29;8802;-69
2022/02/13 07:59:02;;;;;;;;;100.50;87.25;9.40;43.60;;;;;;4937870;29;8822;-70
2022/02/13 08:01:28;;;;;;;;;92.75;84.00;9.70;43.20;;;;;;4938053;29;8763;-70
2022/02/13 08:03:54;;;;;;;;;100.00;88.75;9.70;43.00;;;;;;4937910;29;8790;-70
2022/02/13 08:06:20;;;;;;;;;97.00;84.75;9.80;42.60;;;;;;4937840;29;8833;-69
2022/02/13 08:08:48;;;;;;;;;100.75;87.50;9.80;42.70;;;;;;4938132;29;9449;-69
2022/02/13 08:11:14;;;;;;;;;97.00;82.75;9.90;43.00;;;;;;4937950;29;8829;-68
2022/02/13 08:13:40;;;;;;;;;106.00;92.75;10.00;42.90;;;;;;4938000;29;8801;-70
2022/02/13 08:16:06;;;;;;;;;96.25;84.50;10.10;42.40;;;;;;4937700;29;8825;-69
2022/02/13 08:18:32;;;;;;;;;98.25;83.75;9.90;43.40;;;;;;4937676;29;8879;-69
2022/02/13 08:20:58;;;;;;;;;99.75;79.75;10.20;42.70;;;;;;4937654;29;9584;-68
2022/02/13 08:23:25;;;;;;;;;100.25;87.50;10.30;42.40;;;;;;4937607;29;8861;-69
2022/02/13 08:25:52;;;;;;;;;98.50;92.50;10.30;42.80;;;;;;4937223;29;8795;-69
2022/02/13 08:28:19;;;;;;;;;99.25;92.00;10.30;42.20;;;;;;4937109;29;8775;-69
2022/02/13 08:30:45;;;;;;;;;87.00;67.00;10.50;42.30;;;;;;4937475;29;8791;-69
2022/02/13 08:33:11;;;;;;;;;101.00;90.75;10.60;41.80;;;;;;4937329;29;8961;-69
2022/02/13 08:35:37;;;;;;;;;96.25;83.75;10.70;41.70;;;;;;4937358;29;8791;-69
2022/02/13 08:38:04;;;;;;;;;98.50;90.50;10.70;41.90;;;;;;4937161;29;8786;-68
2022/02/13 08:40:31;;;;;;;;;112.25;105.25;10.80;41.60;;;;;;4937004;29;8844;-71
2022/02/13 08:42:59;;;;;;;;;105.00;93.25;10.90;41.10;;;;;;4937491;29;8870;-70
2022/02/13 08:45:30;;;;;;;;;101.25;99.00;11.00;41.30;;;;;;4937433;29;8775;-70
2022/02/13 08:47:56;;;;;;;;;83.75;66.00;11.10;41.10;;;;;;4937362;29;8790;-71
2022/02/13 08:50:23;;;;;;;;;86.75;69.00;11.20;41.20;;;;;;4937161;29;8873;-69
2022/02/13 08:52:50;;;;;;;;;87.75;71.50;10.80;41.80;;;;;;4937289;29;9488;-69
2022/02/13 08:55:16;;;;;;;;;84.25;69.00;11.10;41.60;;;;;;4937381;29;8821;-69
2022/02/13 08:57:43;;;;;;;;;87.25;67.50;11.20;40.80;;;;;;4937247;29;8791;-69
2022/02/13 09:00:11;;;;;;;;;84.75;66.50;11.30;41.00;;;;;;4936955;29;8829;-69
2022/02/13 09:02:37;;;;;;;;;84.00;66.50;11.50;40.80;;;;;;4937266;29;8779;-69
2022/02/13 09:05:07;;;;;;;;;85.75;72.75;11.60;40.60;;;;;;4937053;29;8793;-69
2022/02/13 09:07:41;;;;;;;;;83.75;65.25;11.30;41.10;;;;;;4937045;29;8779;-69
2022/02/13 09:10:09;;;;;;;;;82.00;65.25;11.50;41.90;;;;;;4937003;29;8981;-69
2022/02/13 09:12:36;;;;;;;;;81.75;64.50;11.70;41.30;;;;;;4937563;29;8937;-69
2022/02/13 09:15:02;;;;;;;;;81.50;63.75;11.70;40.80;;;;;;4936863;29;8799;-69
2022/02/13 09:17:27;;;;;;;;;76.00;60.25;11.90;40.30;;;;;;4936951;29;8801;-69
2022/02/13 09:19:53;;;;;;;;;79.25;63.25;12.00;39.90;;;;;;4936755;29;8802;-69
2022/02/13 09:22:19;;;;;;;;;82.00;63.75;12.00;41.20;;;;;;4936915;29;8779;-69
2022/02/13 09:24:45;;;;;;;;;82.75;64.75;12.20;40.00;;;;;;4936065;29;8833;-69
2022/02/13 09:27:11;;;;;;;;;81.75;63.75;11.90;40.40;;;;;;4936782;29;8818;-68
2022/02/13 09:29:37;;;;;;;;;80.75;65.50;11.90;40.70;;;;;;4936837;29;8775;-69
2022/02/13 09:32:03;;;;;;;;;78.25;60.50;11.90;41.10;;;;;;4936709;29;8838;-69
2022/02/13 09:34:32;;;;;;;;;81.00;64.50;12.10;40.70;;;;;;4936736;29;8821;-70
2022/02/13 09:36:58;;;;;;;;;82.50;66.50;12.10;40.30;;;;;;4935859;29;8795;-69
2022/02/13 09:39:24;;;;;;;;;77.50;63.25;12.00;40.80;;;;;;4939961;29;9563;-69
2022/02/13 09:41:51;;;;;;;;;78.50;64.75;12.20;41.00;;;;;;4938991;29;8917;-70
2022/02/13 09:44:17;;;;;;;;;79.25;61.75;12.00;41.00;;;;;;4940274;29;8865;-71
2022/02/13 09:46:44;;;;;;;;;81.75;63.75;12.10;41.50;;;;;;4940336;29;8786;-69
2022/02/13 09:49:10;;;;;;;;;76.25;61.00;12.10;40.80;;;;;;4940469;29;8783;-70
2022/02/13 09:51:36;;;;;;;;;72.75;56.50;12.40;40.50;;;;;;4940335;29;8910;-69
2022/02/13 09:54:03;;;;;;;;;73.50;58.25;12.40;40.20;;;;;;4940526;29;8798;-70
2022/02/13 09:56:29;;;;;;;;;68.75;56.25;12.60;40.20;;;;;;4940580;29;8775;-70
2022/02/13 09:58:55;;;;;;;;;64.25;51.25;12.80;39.90;;;;;;4940156;29;8806;-71
2022/02/13 10:01:35;;;;;;;;;69.75;56.00;12.40;39.50;;;;;;4940372;29;8791;-70
2022/02/13 10:04:01;;;;;;;;;75.25;60.00;12.80;40.00;;;;;;4940220;29;8817;-70
2022/02/13 10:06:27;;;;;;;;;70.50;54.75;12.90;40.20;;;;;;4940017;29;8779;-70
2022/02/13 10:08:55;;;;;;;;;71.75;57.50;12.60;40.50;;;;;;4940003;29;8853;-70
2022/02/13 10:11:28;;;;;;;;;71.75;58.75;12.60;40.10;;;;;;4940175;29;8814;-70
2022/02/13 10:14:03;;;;;;;;;58.50;50.50;13.10;39.00;;;;;;4940030;29;8759;-70
2022/02/13 10:16:38;;;;;;;;;69.25;53.00;13.00;38.80;;;;;;4939794;29;8821;-70
2022/02/13 10:19:12;;;;;;;;;63.75;49.75;13.00;38.90;;;;;;4939738;29;8837;-70
2022/02/13 10:21:51;;;;;;;;;64.50;52.00;13.50;38.40;;;;;;4939711;29;8794;-71
2022/02/13 10:24:18;;;;;;;;;64.25;52.00;14.00;37.30;;;;;;4940009;29;8957;-70
2022/02/13 10:26:47;;;;;;;;;64.25;50.50;14.00;37.00;;;;;;4939731;29;9507;-69
2022/02/13 10:29:13;;;;;;;;;61.25;49.75;14.00;37.00;;;;;;4939750;29;8779;-70
2022/02/13 10:31:40;;;;;;;;;60.00;50.00;14.20;37.20;;;;;;4939696;29;8771;-69
2022/02/13 10:34:06;;;;;;;;;62.25;48.00;14.70;36.10;;;;;;4939670;29;8869;-69
2022/02/13 10:36:45;;;;;;;;;66.50;51.75;14.90;34.70;;;;;;4939246;29;8787;-69
2022/02/13 10:39:22;;;;;;;;;65.00;52.25;15.40;34.30;;;;;;4939706;29;8806;-69
2022/02/13 10:41:48;;;;;;;;;60.75;48.50;15.30;34.20;;;;;;4939580;29;8803;-69
2022/02/13 10:44:15;;;;;;;;;55.25;44.25;16.70;32.70;;;;;;4939631;29;8794;-69
2022/02/13 10:46:42;;;;;;;;;58.00;48.50;19.00;29.50;;;;;;4939566;29;8877;-69
2022/02/13 10:49:11;;;;;;;;;54.50;45.50;20.70;26.90;;;;;;4938638;29;8799;-69
2022/02/13 10:51:37;;;;;;;;;52.75;43.50;22.80;24.90;;;;;;4939065;29;8797;-69
2022/02/13 10:54:04;;;;;;;;;58.75;47.25;24.40;22.80;;;;;;4939511;29;9465;-69
2022/02/13 10:56:30;;;;;;;;;57.00;46.50;24.60;22.40;;;;;;4939149;29;8889;-69
2022/02/13 10:58:57;;;;;;;;;55.75;47.00;25.60;21.60;;;;;;4939335;29;9591;-69
2022/02/13 11:01:24;;;;;;;;;50.50;43.25;25.90;21.20;;;;;;4938758;29;8782;-69
2022/02/13 11:03:53;;;;;;;;;56.75;45.50;26.50;20.50;;;;;;4939257;29;8798;-69
2022/02/13 11:06:19;;;;;;;;;57.50;47.50;27.10;20.10;;;;;;4939155;29;9469;-69
2022/02/13 11:08:58;;;;;;;;;56.25;46.00;27.00;19.60;;;;;;4939219;29;8881;-69
2022/02/13 11:11:26;;;;;;;;;52.00;44.00;27.30;19.80;;;;;;4939079;29;8901;-69
2022/02/13 11:13:55;;;;;;;;;50.67;43.00;26.60;19.00;;;;;;4939034;29;8775;-68
2022/02/13 11:16:36;;;;;;;;;50.33;41.67;27.30;18.80;;;;;;4938807;29;8779;-69
2022/02/13 11:19:09;;;;;;;;;47.33;40.33;28.80;18.30;;;;;;4938682;29;8826;-69
2022/02/13 11:21:36;;;;;;;;;49.00;42.00;27.70;18.70;;;;;;4939052;29;8841;-68
2022/02/13 11:24:03;;;;;;;;;50.67;43.33;28.80;18.00;;;;;;4938682;29;8782;-68
2022/02/13 11:26:38;;;;;;;;;48.00;41.00;29.30;17.60;;;;;;4938560;29;8775;-68
2022/02/13 11:29:05;;;;;;;;;48.00;41.33;28.40;17.80;;;;;;4938722;29;8801;-68
2022/02/13 11:31:42;;;;;;;;;46.00;39.67;26.70;18.40;;;;;;4938233;29;8798;-70
2022/02/13 11:34:13;;;;;;;;;46.00;39.67;26.30;19.70;;;;;;4938545;29;8997;-69
2022/02/13 11:36:48;;;;;;;;;45.00;39.33;26.40;19.20;;;;;;4938669;29;8791;-69
2022/02/13 11:39:32;;;;;;;;;44.33;39.33;26.20;19.30;;;;;;4938371;29;8815;-68
2022/02/13 11:42:01;;;;;;;;;51.33;44.00;25.10;20.30;;;;;;4938669;29;8822;-69
2022/02/13 11:44:39;;;;;;;;;54.33;45.67;25.70;20.00;;;;;;4938403;29;8983;-69
2022/02/13 11:47:07;;;;;;;;;54.00;46.00;26.50;19.40;;;;;;4938507;29;8782;-69
2022/02/13 11:50:06;;;;;;;;;52.33;45.33;26.80;18.70;;;;;;4938556;29;9505;-69
2022/02/13 11:52:35;;;;;;;;;48.67;41.67;26.50;19.30;;;;;;4938074;29;8791;-68
2022/02/13 11:55:04;;;;;;;;;50.33;43.00;29.40;18.00;;;;;;4938156;29;8795;-69
2022/02/13 11:57:33;;;;;;;;;49.67;42.00;28.70;17.30;;;;;;4938152;29;8905;-70
2022/02/13 11:59:58;;;;;;;;;45.33;40.00;26.40;18.40;;;;;;4937989;29;8853;-69
2022/02/13 12:02:30;;;;;;;;;49.00;42.00;25.00;19.80;;;;;;4937998;29;8791;-69
2022/02/13 12:05:07;;;;;;;;;51.00;43.67;23.10;21.50;;;;;;4937930;29;8890;-69
2022/02/13 12:07:53;;;;;;;;;53.25;41.00;21.40;22.70;;;;;;4937912;29;9468;-69
2022/02/13 12:10:27;;;;;;;;;52.25;43.00;21.10;23.80;;;;;;4938043;29;8807;-70
2022/02/13 12:13:04;;;;;;;;;51.33;42.67;22.10;23.30;;;;;;4938198;29;8807;-69
2022/02/13 12:15:30;;;;;;;;;51.67;42.00;24.10;21.80;;;;;;4937841;29;8853;-69
2022/02/13 12:18:13;;;;;;;;;54.00;44.33;24.70;21.20;;;;;;4937689;29;8783;-69
2022/02/13 12:20:43;;;;;;;;;49.33;41.67;27.20;19.30;;;;;;4937629;29;8907;-69
2022/02/13 12:23:15;;;;;;;;;47.00;40.00;28.20;18.50;;;;;;4937895;29;8811;-69
2022/02/13 12:25:45;;;;;;;;;49.00;41.67;28.60;17.80;;;;;;4937889;29;9507;-68
2022/02/13 12:28:13;;;;;;;;;38.00;35.33;28.50;17.70;;;;;;4937599;29;8810;-69
2022/02/13 12:30:51;;;;;;;;;40.00;36.00;28.20;17.50;;;;;;4937467;29;8797;-68
2022/02/13 12:33:18;;;;;;;;;40.67;37.00;28.00;17.60;;;;;;4937265;29;8815;-68
2022/02/13 12:35:45;;;;;;;;;47.00;41.33;26.60;17.80;;;;;;4937613;29;8814;-68
2022/02/13 12:38:12;;;;;;;;;47.67;41.33;24.70;19.00;;;;;;4937612;29;8787;-68
2022/02/13 12:40:44;;;;;;;;;43.33;38.00;25.00;19.90;;;;;;4937079;29;8795;-68